createdAt,value
2022-07-29T00:00:21.305Z,23.22
2022-07-29T00:02:49.162Z,22.92
2022-07-29T00:05:18.384Z,22.15
2022-07-29T00:07:46.202Z,21.97
2022-07-29T00:10:14.178Z,21.57
2022-07-29T00:12:42.355Z,21.20
2022-07-29T00:15:10.965Z,21.33
2022-07-29T00:17:38.831Z,21.25
2022-07-29T00:20:07.953Z,21.58
2022-07-29T00:22:39.226Z,21.19
2022-07-29T00:25:08.596Z,21.14
2022-07-29T00:27:36.546Z,21.60
2022-07-29T00:30:06.181Z,21.83
2022-07-29T00:32:34.139Z,21.72
2022-07-29T00:35:19.594Z,22.05
2022-07-29T00:37:48.837Z,22.22
2022-07-29T00:40:16.748Z,22.28
2022-07-29T00:42:48.436Z,22.30
2022-07-29T00:45:17.020Z,22.38
2022-07-29T00:47:45.283Z,22.42
2022-07-29T00:50:15.942Z,22.35
2022-07-29T00:52:44.820Z,22.34
2022-07-29T00:55:17.797Z,21.82
2022-07-29T00:57:47.089Z,21.92
2022-07-29T01:00:18.344Z,22.00
2022-07-29T01:02:49.374Z,22.07
2022-07-29T01:05:19.965Z,22.01
2022-07-29T01:07:50.455Z,21.97
2022-07-29T01:10:22.053Z,21.65
2022-07-29T01:12:53.645Z,20.49
2022-07-29T01:15:22.831Z,20.14
2022-07-29T01:17:59.265Z,20.27
2022-07-29T01:20:35.032Z,20.37
2022-07-29T01:23:15.674Z,20.85
2022-07-29T01:26:02.423Z,20.73
2022-07-29T01:28:54.036Z,20.51
2022-07-29T01:31:26.973Z,20.91
2022-07-29T01:34:00.894Z,20.64
2022-07-29T01:36:34.354Z,20.09
2022-07-29T01:39:08.462Z,20.42
2022-07-29T01:41:42.776Z,19.92
2022-07-29T01:44:17.427Z,19.69
2022-07-29T01:46:54.597Z,20.28
2022-07-29T01:49:27.805Z,20.03
2022-07-29T01:52:02.802Z,20.11
2022-07-29T01:54:37.774Z,20.75
2022-07-29T01:57:09.182Z,20.86
2022-07-29T01:59:39.305Z,20.39
2022-07-29T02:02:10.320Z,20.22
2022-07-29T02:04:40.030Z,20.48
2022-07-29T02:07:12.707Z,20.69
2022-07-29T02:09:42.813Z,20.91
2022-07-29T02:12:12.757Z,20.71
2022-07-29T02:14:46.632Z,20.05
2022-07-29T02:17:16.324Z,19.90
2022-07-29T02:19:45.319Z,19.64
2022-07-29T02:22:14.629Z,19.54
2022-07-29T02:24:44.316Z,19.53
2022-07-29T02:27:14.015Z,19.23
2022-07-29T02:29:44.108Z,19.35
2022-07-29T02:32:13.488Z,19.76
2022-07-29T02:34:43.168Z,20.00
2022-07-29T02:37:12.061Z,19.55
2022-07-29T02:39:43.003Z,19.06
2022-07-29T02:42:15.435Z,18.70
2022-07-29T02:44:45.303Z,18.59
2022-07-29T02:47:20.015Z,18.70
2022-07-29T02:49:54.372Z,18.69
2022-07-29T02:52:27.614Z,18.90
2022-07-29T02:54:59.015Z,18.86
2022-07-29T02:57:54.904Z,19.35
2022-07-29T03:00:29.011Z,19.99
2022-07-29T03:03:00.323Z,20.19
2022-07-29T03:05:28.622Z,19.75
2022-07-29T03:08:00.309Z,19.74
2022-07-29T03:10:29.985Z,20.16
2022-07-29T03:12:59.091Z,20.46
2022-07-29T03:15:29.429Z,20.55
2022-07-29T03:17:57.728Z,19.51
2022-07-29T03:20:25.956Z,19.11
2022-07-29T03:22:53.752Z,18.99
2022-07-29T03:25:23.028Z,18.78
2022-07-29T03:27:50.876Z,18.78
2022-07-29T03:30:22.223Z,19.06
2022-07-29T03:32:52.879Z,18.81
2022-07-29T03:35:21.426Z,19.46
2022-07-29T03:37:49.543Z,19.52
2022-07-29T03:40:24.406Z,19.68
2022-07-29T03:42:55.547Z,19.82
2022-07-29T03:45:25.139Z,20.12
2022-07-29T03:48:00.893Z,19.76
2022-07-29T03:50:30.833Z,20.07
2022-07-29T03:52:59.619Z,19.97
2022-07-29T03:55:30.398Z,19.44
2022-07-29T03:57:59.588Z,20.04
2022-07-29T04:00:29.111Z,20.29
2022-07-29T04:02:59.085Z,20.41
2022-07-29T04:05:27.297Z,20.54
2022-07-29T04:07:55.190Z,20.55
2022-07-29T04:10:30.567Z,20.62
2022-07-29T04:12:59.746Z,20.68
2022-07-29T04:15:31.609Z,20.69
2022-07-29T04:18:01.864Z,20.52
2022-07-29T04:20:29.807Z,20.14
2022-07-29T04:22:59.819Z,20.33
2022-07-29T04:25:27.923Z,20.64
2022-07-29T04:28:04.864Z,20.71
2022-07-29T04:30:34.269Z,20.29
2022-07-29T04:33:06.149Z,19.73
2022-07-29T04:35:38.679Z,19.92
2022-07-29T04:38:18.164Z,19.65
2022-07-29T04:40:47.006Z,19.68
2022-07-29T04:43:15.903Z,19.77
2022-07-29T04:45:43.850Z,19.35
2022-07-29T04:48:13.216Z,19.63
2022-07-29T04:50:41.645Z,19.77
2022-07-29T04:53:09.725Z,19.91
2022-07-29T04:55:38.892Z,19.57
2022-07-29T04:58:09.974Z,19.11
2022-07-29T05:00:38.167Z,19.08
2022-07-29T05:03:06.176Z,19.27
2022-07-29T05:05:35.555Z,18.94
2022-07-29T05:08:03.422Z,19.41
2022-07-29T05:10:31.633Z,19.99
2022-07-29T05:12:59.497Z,19.46
2022-07-29T05:15:28.029Z,19.78
2022-07-29T05:17:55.863Z,20.37
2022-07-29T05:20:27.307Z,20.65
2022-07-29T05:22:56.613Z,19.87
2022-07-29T05:25:24.452Z,19.93
2022-07-29T05:28:11.910Z,20.35
2022-07-29T05:30:40.227Z,20.76
2022-07-29T05:33:08.093Z,21.29
2022-07-29T05:35:38.051Z,21.58
2022-07-29T05:38:07.237Z,21.76
2022-07-29T05:40:35.748Z,21.94
2022-07-29T05:43:03.538Z,22.07
2022-07-29T05:45:31.377Z,22.32
2022-07-29T05:47:59.201Z,22.58
2022-07-29T05:50:27.352Z,22.70
2022-07-29T05:52:55.153Z,22.73
2022-07-29T05:55:24.470Z,22.60
2022-07-29T05:57:54.541Z,22.78
2022-07-29T06:00:22.382Z,22.90
2022-07-29T06:02:50.205Z,22.99
2022-07-29T06:05:18.231Z,23.11
2022-07-29T06:07:50.122Z,23.29
2022-07-29T06:10:23.906Z,23.51
2022-07-29T06:12:55.634Z,22.91
2022-07-29T06:15:23.779Z,22.50
2022-07-29T06:18:00.307Z,23.35
2022-07-29T06:20:31.210Z,23.44
2022-07-29T06:22:59.934Z,23.77
2022-07-29T06:25:30.087Z,24.14
2022-07-29T06:28:00.187Z,24.25
2022-07-29T06:30:29.596Z,24.24
2022-07-29T06:32:57.563Z,24.05
2022-07-29T06:35:41.714Z,22.84
2022-07-29T06:38:30.747Z,23.73
2022-07-29T06:41:03.025Z,23.63
2022-07-29T06:43:34.864Z,24.28
2022-07-29T06:46:04.434Z,24.41
2022-07-29T06:48:32.915Z,23.30
2022-07-29T06:51:03.585Z,23.82
2022-07-29T06:53:34.708Z,24.53
2022-07-29T06:56:04.392Z,24.65
2022-07-29T06:58:34.051Z,24.44
2022-07-29T07:01:04.486Z,23.61
2022-07-29T07:03:33.036Z,23.84
2022-07-29T07:06:03.052Z,23.08
2022-07-29T07:08:31.335Z,23.93
2022-07-29T07:11:01.758Z,24.71
2022-07-29T07:13:35.112Z,24.94
2022-07-29T07:16:08.438Z,25.51
2022-07-29T07:18:36.566Z,24.41
2022-07-29T07:21:05.924Z,24.40
2022-07-29T07:23:33.834Z,24.35
2022-07-29T07:26:01.682Z,24.83
2022-07-29T07:28:31.578Z,24.52
2022-07-29T07:30:59.913Z,25.29
2022-07-29T07:33:29.340Z,25.07
2022-07-29T07:35:57.204Z,24.89
2022-07-29T07:38:25.085Z,24.17
2022-07-29T07:40:52.970Z,24.39
2022-07-29T07:43:20.851Z,25.38
2022-07-29T07:45:48.728Z,25.22
2022-07-29T07:48:16.621Z,26.40
2022-07-29T07:50:46.142Z,26.99
2022-07-29T07:53:14.364Z,27.29
2022-07-29T07:58:31.950Z,26.08
2022-07-29T08:01:00.611Z,26.82
2022-07-29T08:03:30.810Z,26.95
2022-07-29T08:06:00.188Z,27.31
2022-07-29T08:08:28.118Z,26.75
2022-07-29T08:10:56.816Z,26.05
2022-07-29T08:13:28.181Z,27.00
2022-07-29T08:16:02.725Z,27.93
2022-07-29T08:18:32.454Z,28.24
2022-07-29T08:21:01.652Z,28.44
2022-07-29T08:23:46.115Z,29.06
2022-07-29T08:26:15.699Z,29.68
2022-07-29T08:28:49.644Z,30.09
2022-07-29T08:31:18.183Z,30.51
2022-07-29T08:33:46.112Z,29.41
2022-07-29T08:36:15.690Z,29.15
2022-07-29T08:38:43.498Z,29.45
2022-07-29T08:41:11.787Z,29.69
2022-07-29T08:43:42.940Z,29.98
2022-07-29T08:46:10.995Z,30.65
2022-07-29T08:48:45.589Z,30.77
2022-07-29T08:51:19.593Z,31.09
2022-07-29T08:53:49.482Z,31.43
2022-07-29T08:56:19.256Z,29.03
2022-07-29T08:58:52.087Z,29.30
2022-07-29T09:01:36.368Z,29.66
2022-07-29T09:04:13.532Z,30.02
2022-07-29T09:06:45.924Z,31.06
2022-07-29T09:09:17.575Z,30.95
2022-07-29T09:12:12.391Z,31.26
2022-07-29T09:14:44.603Z,30.63
2022-07-29T09:17:13.069Z,30.12
2022-07-29T09:19:45.543Z,30.17
2022-07-29T09:22:36.678Z,30.69
2022-07-29T09:25:08.049Z,30.24
2022-07-29T09:27:36.635Z,30.40
2022-07-29T09:30:07.241Z,31.38
2022-07-29T09:32:57.218Z,32.63
2022-07-29T09:35:27.201Z,31.88
2022-07-29T09:37:56.949Z,30.56
2022-07-29T09:40:29.251Z,30.61
2022-07-29T09:42:58.224Z,31.56
2022-07-29T09:45:33.086Z,32.14
2022-07-29T09:48:04.217Z,31.31
2022-07-29T09:50:40.294Z,30.67
2022-07-29T09:53:11.052Z,31.33
2022-07-29T09:55:52.018Z,29.85
2022-07-29T09:58:21.360Z,31.50
2022-07-29T10:00:50.770Z,32.41
2022-07-29T10:03:20.081Z,33.02
2022-07-29T10:05:48.718Z,33.07
2022-07-29T10:08:27.211Z,31.40
2022-07-29T10:11:11.499Z,28.90
2022-07-29T10:13:40.237Z,28.86
2022-07-29T10:16:09.303Z,29.68
2022-07-29T10:18:37.697Z,28.00
2022-07-29T10:21:06.005Z,28.03
2022-07-29T10:23:47.056Z,28.68
2022-07-29T10:26:15.511Z,28.92
2022-07-29T10:28:45.829Z,27.06
2022-07-29T10:31:23.541Z,27.00
2022-07-29T10:34:03.460Z,27.04
2022-07-29T10:36:45.855Z,27.58
2022-07-29T10:39:41.803Z,27.56
2022-07-29T10:42:29.423Z,26.88
2022-07-29T10:45:01.655Z,27.11
2022-07-29T10:47:29.684Z,26.89
2022-07-29T10:49:59.351Z,26.57
2022-07-29T10:52:58.662Z,26.38
2022-07-29T10:55:37.715Z,26.28
2022-07-29T10:58:17.880Z,26.44
2022-07-29T11:00:47.848Z,26.85
2022-07-29T11:03:50.433Z,27.26
2022-07-29T11:06:26.626Z,27.34
2022-07-29T11:09:25.772Z,27.40
2022-07-29T11:12:05.972Z,27.44
2022-07-29T11:15:00.016Z,27.40
2022-07-29T11:17:28.336Z,27.47
2022-07-29T11:20:34.098Z,27.19
2022-07-29T11:23:20.408Z,26.61
2022-07-29T11:26:18.751Z,26.71
2022-07-29T11:28:59.582Z,26.63
2022-07-29T11:31:39.850Z,26.77
2022-07-29T11:34:28.121Z,26.33
2022-07-29T11:40:18.426Z,26.62
2022-07-29T11:42:48.387Z,26.92
2022-07-29T11:45:42.497Z,26.89
2022-07-29T11:48:29.316Z,26.82
2022-07-29T11:51:00.590Z,25.82
2022-07-29T11:53:32.891Z,25.22
2022-07-29T11:56:03.416Z,25.50
2022-07-29T11:58:34.924Z,25.76
2022-07-29T12:01:09.389Z,25.91
2022-07-29T12:03:37.387Z,26.34
2022-07-29T12:06:18.254Z,26.63
2022-07-29T12:08:47.430Z,26.82
2022-07-29T12:11:20.874Z,27.36
2022-07-29T12:13:50.650Z,27.22
2022-07-29T12:16:28.151Z,27.41
2022-07-29T12:19:02.079Z,27.28
2022-07-29T12:21:31.225Z,26.86
2022-07-29T12:24:05.620Z,26.71
2022-07-29T12:26:37.261Z,26.48
2022-07-29T12:29:11.470Z,26.47
2022-07-29T12:31:45.718Z,26.05
2022-07-29T12:34:15.067Z,26.21
2022-07-29T12:36:43.460Z,26.08
2022-07-29T12:39:12.369Z,25.93
2022-07-29T12:41:40.753Z,25.91
2022-07-29T12:44:08.390Z,26.52
2022-07-29T12:46:36.079Z,26.34
2022-07-29T12:49:05.458Z,26.29
2022-07-29T12:51:33.823Z,26.16
2022-07-29T12:54:05.949Z,26.17
2022-07-29T12:56:42.904Z,26.02
2022-07-29T12:59:14.901Z,26.01
2022-07-29T13:01:42.833Z,26.09
2022-07-29T13:04:12.040Z,25.81
2022-07-29T13:06:41.226Z,25.75
2022-07-29T13:09:14.325Z,25.38
2022-07-29T13:11:47.895Z,25.26
2022-07-29T13:14:31.295Z,25.44
2022-07-29T13:17:03.579Z,25.59
2022-07-29T13:19:36.690Z,25.60
2022-07-29T13:22:04.481Z,25.76
2022-07-29T13:24:34.498Z,25.57
2022-07-29T13:27:02.442Z,25.36
2022-07-29T13:29:34.119Z,24.89
2022-07-29T13:32:01.887Z,25.08
2022-07-29T13:34:29.532Z,25.20
2022-07-29T13:36:58.579Z,24.77
2022-07-29T13:39:26.233Z,24.88
2022-07-29T13:41:53.881Z,24.87
2022-07-29T13:44:24.020Z,25.25
2022-07-29T13:46:51.746Z,25.24
2022-07-29T13:49:19.415Z,25.50
2022-07-29T13:51:48.232Z,25.33
2022-07-29T13:54:17.461Z,25.80
2022-07-29T13:56:46.276Z,26.09
2022-07-29T13:59:14.281Z,26.20
2022-07-29T14:01:43.067Z,26.25
2022-07-29T14:04:11.321Z,26.10
2022-07-29T14:06:40.489Z,25.95
2022-07-29T14:09:09.593Z,25.85
2022-07-29T14:11:39.378Z,25.99
2022-07-29T14:14:07.124Z,26.16
2022-07-29T14:16:40.440Z,26.12
2022-07-29T14:19:10.346Z,26.20
2022-07-29T14:21:37.947Z,26.38
2022-07-29T14:24:14.146Z,26.53
2022-07-29T14:26:46.796Z,26.31
2022-07-29T14:29:14.506Z,26.42
2022-07-29T14:31:44.032Z,26.67
2022-07-29T14:34:11.733Z,26.80
2022-07-29T14:36:39.313Z,26.70
2022-07-29T14:39:06.936Z,26.50
2022-07-29T14:41:34.720Z,26.77
2022-07-29T14:44:03.740Z,26.79
2022-07-29T14:46:31.401Z,26.82
2022-07-29T14:49:01.624Z,26.93
2022-07-29T14:51:32.469Z,26.78
2022-07-29T14:54:00.440Z,26.98
2022-07-29T14:56:46.312Z,27.17
2022-07-29T14:59:16.413Z,27.22
2022-07-29T15:01:44.050Z,27.27
2022-07-29T15:04:14.012Z,27.09
2022-07-29T15:06:41.593Z,26.99
2022-07-29T15:09:09.228Z,26.91
2022-07-29T15:11:38.328Z,27.22
2022-07-29T15:14:06.791Z,27.19
2022-07-29T15:16:37.359Z,27.26
2022-07-29T15:19:07.549Z,26.99
2022-07-29T15:21:35.603Z,26.72
2022-07-29T15:24:16.690Z,26.44
2022-07-29T15:26:45.755Z,26.54
2022-07-29T15:29:14.347Z,26.47
2022-07-29T15:31:46.154Z,26.38
2022-07-29T15:34:13.905Z,26.59
2022-07-29T15:36:52.916Z,26.68
2022-07-29T15:39:22.824Z,26.59
2022-07-29T15:41:51.273Z,26.03
2022-07-29T15:44:22.072Z,26.09
2022-07-29T15:47:06.051Z,26.10
2022-07-29T15:49:47.361Z,26.06
2022-07-29T15:52:18.127Z,26.04
2022-07-29T15:54:45.930Z,26.11
2022-07-29T15:57:13.710Z,26.04
2022-07-29T15:59:43.594Z,25.84
2022-07-29T16:02:12.647Z,25.99
2022-07-29T16:04:40.379Z,25.79
2022-07-29T16:07:08.114Z,25.70
2022-07-29T16:09:35.760Z,25.55
2022-07-29T16:12:09.985Z,25.83
2022-07-29T16:14:43.622Z,26.20
2022-07-29T16:17:14.928Z,26.25
2022-07-29T16:19:43.061Z,26.21
2022-07-29T16:22:10.807Z,26.28
2022-07-29T16:24:38.923Z,26.02
2022-07-29T16:27:06.588Z,26.26
2022-07-29T16:29:34.316Z,26.14
2022-07-29T16:32:02.550Z,26.00
2022-07-29T16:34:32.005Z,26.05
2022-07-29T16:37:04.943Z,25.79
2022-07-29T16:39:33.343Z,25.83
2022-07-29T16:42:05.488Z,25.86
2022-07-29T16:44:34.765Z,25.79
2022-07-29T16:47:02.993Z,25.98
2022-07-29T16:49:34.348Z,26.12
2022-07-29T16:52:01.999Z,25.99
2022-07-29T16:54:29.637Z,26.03
2022-07-29T16:56:57.675Z,25.91
2022-07-29T16:59:25.487Z,26.00
2022-07-29T17:01:53.287Z,26.12
2022-07-29T17:04:20.936Z,26.16
2022-07-29T17:06:52.469Z,26.16
2022-07-29T17:09:21.375Z,26.11
2022-07-29T17:11:54.893Z,26.21
2022-07-29T17:14:25.054Z,26.34
2022-07-29T17:17:00.478Z,26.16
2022-07-29T17:19:31.903Z,25.93
2022-07-29T17:22:11.324Z,26.08
2022-07-29T17:24:41.943Z,26.10
2022-07-29T17:27:10.500Z,26.04
2022-07-29T17:29:38.866Z,25.94
2022-07-29T17:32:07.530Z,25.81
2022-07-29T17:34:35.868Z,25.74
2022-07-29T17:37:07.851Z,25.74
2022-07-29T17:39:40.830Z,25.87
2022-07-29T17:42:09.066Z,26.07
2022-07-29T17:44:36.734Z,26.13
2022-07-29T17:47:04.866Z,26.18
2022-07-29T17:49:33.401Z,26.07
2022-07-29T17:52:04.768Z,26.18
2022-07-29T17:54:33.854Z,25.91
2022-07-29T17:57:02.142Z,25.89
2022-07-29T17:59:32.438Z,26.00
2022-07-29T18:02:00.379Z,25.91
2022-07-29T18:04:29.090Z,25.91
2022-07-29T18:06:56.921Z,25.81
2022-07-29T18:09:24.887Z,25.97
2022-07-29T18:11:53.935Z,25.74
2022-07-29T18:14:21.879Z,25.85
2022-07-29T18:16:49.609Z,25.96
2022-07-29T18:19:19.504Z,25.78
2022-07-29T18:21:54.455Z,25.82
2022-07-29T18:24:25.230Z,25.83
2022-07-29T18:26:54.576Z,25.82
2022-07-29T18:29:23.150Z,25.80
2022-07-29T18:31:51.124Z,25.75
2022-07-29T18:34:19.820Z,25.71
2022-07-29T18:36:48.422Z,25.65
2022-07-29T18:39:21.258Z,25.60
2022-07-29T18:41:50.399Z,25.41
2022-07-29T18:44:21.909Z,25.40
2022-07-29T18:46:50.360Z,25.35
2022-07-29T18:49:18.453Z,25.26
2022-07-29T18:51:48.717Z,25.19
2022-07-29T18:54:17.326Z,25.15
2022-07-29T18:56:45.514Z,25.14
2022-07-29T18:59:17.049Z,25.09
2022-07-29T19:01:46.287Z,25.01
2022-07-29T19:04:14.389Z,24.96
2022-07-29T19:06:42.105Z,24.94
2022-07-29T19:09:09.805Z,24.79
2022-07-29T19:11:38.390Z,24.60
2022-07-29T19:14:06.465Z,24.49
2022-07-29T19:16:34.246Z,24.40
2022-07-29T19:19:03.410Z,24.38
2022-07-29T19:21:31.189Z,24.32
2022-07-29T19:24:02.451Z,24.25
2022-07-29T19:26:36.546Z,24.18
2022-07-29T19:29:04.655Z,24.15
2022-07-29T19:31:32.420Z,24.08
2022-07-29T19:34:04.462Z,24.02
2022-07-29T19:36:32.810Z,23.96
2022-07-29T19:39:00.947Z,23.87
2022-07-29T19:41:28.615Z,23.82
2022-07-29T19:43:56.444Z,23.76
2022-07-29T19:46:24.870Z,23.65
2022-07-29T19:48:52.943Z,23.60
2022-07-29T19:51:23.264Z,23.41
2022-07-29T19:53:53.369Z,23.33
2022-07-29T19:56:21.072Z,22.86
2022-07-29T19:58:48.722Z,22.28
2022-07-29T20:01:19.407Z,22.28
2022-07-29T20:03:47.207Z,22.45
2022-07-29T20:06:15.366Z,22.58
2022-07-29T20:08:46.934Z,22.58
2022-07-29T20:11:20.881Z,22.81
2022-07-29T20:13:51.184Z,22.64
2022-07-29T20:16:18.918Z,22.65
2022-07-29T20:18:47.001Z,22.78
2022-07-29T20:21:14.726Z,22.40
2022-07-29T20:23:42.398Z,22.51
2022-07-29T20:26:11.443Z,22.43
2022-07-29T20:28:40.243Z,22.11
2022-07-29T20:31:08.757Z,22.20
2022-07-29T20:33:36.451Z,22.16
2022-07-29T20:36:04.685Z,22.05
2022-07-29T20:38:32.371Z,21.78
2022-07-29T20:41:02.321Z,21.54
2022-07-29T20:43:31.718Z,21.65
2022-07-29T20:46:06.336Z,21.53
2022-07-29T20:48:34.045Z,21.26
2022-07-29T20:51:02.242Z,21.13
2022-07-29T20:53:29.881Z,20.80
2022-07-29T20:55:57.537Z,20.59
2022-07-29T20:58:25.184Z,20.55
2022-07-29T21:00:54.113Z,20.55
2022-07-29T21:03:22.337Z,20.65
2022-07-29T21:05:50.231Z,20.88
2022-07-29T21:08:17.892Z,21.05
2022-07-29T21:10:45.619Z,21.02
2022-07-29T21:13:14.073Z,20.90
2022-07-29T21:15:44.109Z,20.92
2022-07-29T21:18:27.081Z,20.72
2022-07-29T21:20:54.856Z,20.74
2022-07-29T21:23:22.601Z,20.76
2022-07-29T21:25:50.314Z,20.69
2022-07-29T21:28:35.947Z,20.62
2022-07-29T21:31:04.425Z,20.89
2022-07-29T21:33:33.540Z,20.94
2022-07-29T21:38:51.536Z,20.61
2022-07-29T21:41:21.811Z,20.49
2022-07-29T21:43:49.460Z,20.45
2022-07-29T21:46:18.143Z,20.50
2022-07-29T21:48:47.268Z,20.49
2022-07-29T21:51:15.409Z,20.48
2022-07-29T21:53:43.050Z,20.26
2022-07-29T21:56:14.637Z,20.19
2022-07-29T21:58:45.236Z,20.15
2022-07-29T22:01:13.238Z,20.12
2022-07-29T22:03:40.939Z,20.20
2022-07-29T22:06:11.274Z,19.90
2022-07-29T22:08:45.728Z,19.74
2022-07-29T22:11:14.357Z,19.67
2022-07-29T22:13:42.349Z,19.64
2022-07-29T22:16:10.284Z,19.64
2022-07-29T22:18:37.967Z,19.65
2022-07-29T22:21:08.375Z,19.59
2022-07-29T22:23:37.523Z,19.60
2022-07-29T22:26:05.496Z,19.55
2022-07-29T22:28:33.187Z,19.55
2022-07-29T22:31:00.886Z,19.43
2022-07-29T22:33:28.808Z,19.45
2022-07-29T22:35:56.711Z,19.53
2022-07-29T22:38:24.464Z,19.55
2022-07-29T22:40:53.665Z,19.47
2022-07-29T22:43:28.285Z,19.62
2022-07-29T22:45:56.032Z,19.65
2022-07-29T22:48:23.718Z,19.66
2022-07-29T22:50:51.610Z,19.49
2022-07-29T22:53:19.385Z,19.45
2022-07-29T22:55:47.199Z,19.58
2022-07-29T22:58:16.267Z,19.70
2022-07-29T23:00:43.946Z,19.36
2022-07-29T23:03:12.427Z,19.50
2022-07-29T23:05:40.051Z,19.63
2022-07-29T23:08:07.673Z,19.74
2022-07-29T23:10:35.503Z,19.78
2022-07-29T23:13:04.459Z,19.74
2022-07-29T23:15:33.605Z,19.74
2022-07-29T23:18:03.802Z,19.42
2022-07-29T23:20:33.581Z,19.09
2022-07-29T23:23:03.747Z,19.01
2022-07-29T23:25:31.547Z,19.21
2022-07-29T23:27:59.221Z,19.40
2022-07-29T23:30:27.182Z,19.07
2022-07-29T23:32:56.336Z,19.13
2022-07-29T23:35:24.016Z,19.21
2022-07-29T23:37:54.189Z,19.14
2022-07-29T23:40:22.164Z,19.07
2022-07-29T23:42:49.869Z,18.94
2022-07-29T23:45:17.604Z,19.10
2022-07-29T23:47:45.315Z,19.27
2022-07-29T23:50:16.666Z,19.37
2022-07-29T23:52:44.511Z,19.43
2022-07-29T23:55:37.547Z,19.42
2022-07-29T23:58:00.542Z,19.37
